Airfield :







YOU CAN JOIN US ON...

 
LOGIN :

Register | Disclaimer

   EN    FR    IT 

 









Legend :    VFR   Marginal VFR   IFR   Intensive IFR   Very Intensive IFR
Visi :
Ceiling :
>= 8 km
>= 3000ft
5 to 8 km
1000 to 3000 ft
1500m to 5 km
500 to 1000 ft
800 to 1500m
200 to 500 ft
< 800m
< 200 ft
Symbols :   Thunderstorms  Fog  Heavy snow  Heavy precipitations  Wind > 20 kt






- Airport Elevation : 1825 ft


K8B0 - Steven A. Bean Municipal

CURRENT METAR :
  • 242355Z AUTO 18004G10KT 10SM OVC010 17/17 A3017 RMK AO2

EXPIRED METARs :
  • 242335Z AUTO VRB06KT 10SM BKN008 OVC011 17/17 A3018 RMK AO2
  • 242315Z AUTO VRB06KT 10SM BKN010 OVC016 17/17 A3019 RMK AO2
  • 242255Z AUTO VRB05KT 10SM BKN015 OVC021 17/17 A3019 RMK AO2
  • 242235Z AUTO VRB05G10KT 10SM FEW009 SCT013 BKN022 17/17 A3019 RMK AO2
  • 242215Z AUTO VRB06KT 10SM BKN009 BKN014 18/18 A3019 RMK AO2
  • 242135Z AUTO VRB05KT 10SM SCT011 BKN016 OVC021 18/18 A3018 RMK AO2
  • 242115Z AUTO 16007G14KT 120V190 10SM OVC012 18/18 A3019 RMK AO2
  • 242055Z AUTO VRB05KT 10SM OVC011 18/18 A3019 RMK AO2
  • 242035Z AUTO VRB06KT 10SM OVC011 18/18 A3020 RMK AO2
  • 242015Z AUTO VRB04KT 10SM SCT009 OVC013 18/18 A3021 RMK AO2
  • 241955Z AUTO 14005KT 10SM BKN010 OVC013 18/18 A3021 RMK AO2
  • 241935Z AUTO VRB04G10KT 10SM BKN011 OVC015 18/18 A3021 RMK AO2
  • 241915Z AUTO VRB04KT 10SM BKN008 OVC013 18/18 A3022 RMK AO2

TAF N/A



MET'MAP, your aeronautical weather chart ! - Copyright ORBIFLY December 2007 - Disclaimer

ORBIFLY MET'MAP TEAM :

Programming & Development : Alexandra Zaïnal
Original concept : Baudouin d'Aumeries
Technical & hardware support : Manuel Goepfert
Assistance : Marc-Olivier Méhu




SOURCES & CREDITS :

   NOAA